sensor_id;sensor_type;location;lat;lon;timestamp;temperature;humidity
25248;DHT22;13191;47.472;11.214;2022-10-17T00:01:38;9.30;99.90
25248;DHT22;13191;47.472;11.214;2022-10-17T00:04:03;9.30;99.90
25248;DHT22;13191;47.472;11.214;2022-10-17T00:06:28;9.30;99.90
25248;DHT22;13191;47.472;11.214;2022-10-17T00:08:54;9.30;99.90
25248;DHT22;13191;47.472;11.214;2022-10-17T00:11:21;9.30;99.90
25248;DHT22;13191;47.472;11.214;2022-10-17T00:13:47;9.40;99.90
25248;DHT22;13191;47.472;11.214;2022-10-17T00:16:13;9.40;99.90
25248;DHT22;13191;47.472;11.214;2022-10-17T00:18:39;9.40;99.90
25248;DHT22;13191;47.472;11.214;2022-10-17T00:21:04;9.40;99.90
25248;DHT22;13191;47.472;11.214;2022-10-17T00:23:30;9.40;99.90
25248;DHT22;13191;47.472;11.214;2022-10-17T00:26:03;9.40;99.90
25248;DHT22;13191;47.472;11.214;2022-10-17T00:28:29;9.40;99.90
25248;DHT22;13191;47.472;11.214;2022-10-17T00:31:04;9.40;99.90
25248;DHT22;13191;47.472;11.214;2022-10-17T00:33:30;9.40;99.90
25248;DHT22;13191;47.472;11.214;2022-10-17T00:38:52;9.40;99.90
25248;DHT22;13191;47.472;11.214;2022-10-17T00:41:18;9.10;99.90
25248;DHT22;13191;47.472;11.214;2022-10-17T00:43:47;9.10;99.90
25248;DHT22;13191;47.472;11.214;2022-10-17T00:46:13;9.20;99.90
25248;DHT22;13191;47.472;11.214;2022-10-17T00:48:38;9.20;99.90
25248;DHT22;13191;47.472;11.214;2022-10-17T00:51:04;9.20;99.90
25248;DHT22;13191;47.472;11.214;2022-10-17T00:53:30;9.20;99.90
25248;DHT22;13191;47.472;11.214;2022-10-17T00:55:56;9.30;99.90
25248;DHT22;13191;47.472;11.214;2022-10-17T00:58:21;9.30;99.90
25248;DHT22;13191;47.472;11.214;2022-10-17T01:00:47;9.20;99.90
25248;DHT22;13191;47.472;11.214;2022-10-17T01:03:12;9.20;99.90
25248;DHT22;13191;47.472;11.214;2022-10-17T01:05:39;9.30;99.90
25248;DHT22;13191;47.472;11.214;2022-10-17T01:08:05;9.20;99.90
25248;DHT22;13191;47.472;11.214;2022-10-17T01:10:39;9.20;99.90
25248;DHT22;13191;47.472;11.214;2022-10-17T01:13:14;9.20;99.90
25248;DHT22;13191;47.472;11.214;2022-10-17T01:18:20;9.10;99.90
25248;DHT22;13191;47.472;11.214;2022-10-17T01:20:54;9.10;99.90
25248;DHT22;13191;47.472;11.214;2022-10-17T01:28:55;9.10;99.90
25248;DHT22;13191;47.472;11.214;2022-10-17T01:31:28;9.10;99.90
25248;DHT22;13191;47.472;11.214;2022-10-17T01:33:58;9.10;99.90
25248;DHT22;13191;47.472;11.214;2022-10-17T01:39:23;9.00;99.90
25248;DHT22;13191;47.472;11.214;2022-10-17T01:41:48;8.90;99.90
25248;DHT22;13191;47.472;11.214;2022-10-17T01:46:42;8.90;99.90
25248;DHT22;13191;47.472;11.214;2022-10-17T01:49:10;8.90;99.90
25248;DHT22;13191;47.472;11.214;2022-10-17T01:51:39;9.00;99.90
25248;DHT22;13191;47.472;11.214;2022-10-17T01:54:09;8.90;99.90
25248;DHT22;13191;47.472;11.214;2022-10-17T01:56:35;8.80;99.90
25248;DHT22;13191;47.472;11.214;2022-10-17T01:59:08;8.80;99.90
25248;DHT22;13191;47.472;11.214;2022-10-17T02:01:36;8.80;99.90
25248;DHT22;13191;47.472;11.214;2022-10-17T02:04:02;8.80;99.90
25248;DHT22;13191;47.472;11.214;2022-10-17T02:06:28;8.90;99.90
25248;DHT22;13191;47.472;11.214;2022-10-17T02:08:53;8.90;99.90
25248;DHT22;13191;47.472;11.214;2022-10-17T02:11:19;9.00;99.90
25248;DHT22;13191;47.472;11.214;2022-10-17T02:14:05;9.00;99.90
25248;DHT22;13191;47.472;11.214;2022-10-17T02:19:05;9.00;99.90
25248;DHT22;13191;47.472;11.214;2022-10-17T02:24:18;8.90;99.90
25248;DHT22;13191;47.472;11.214;2022-10-17T02:26:52;8.80;99.90
25248;DHT22;13191;47.472;11.214;2022-10-17T02:29:21;8.80;99.90
25248;DHT22;13191;47.472;11.214;2022-10-17T02:31:50;8.80;99.90
25248;DHT22;13191;47.472;11.214;2022-10-17T02:34:22;8.80;99.90
25248;DHT22;13191;47.472;11.214;2022-10-17T02:36:49;8.60;99.90
25248;DHT22;13191;47.472;11.214;2022-10-17T02:39:16;8.60;99.90
25248;DHT22;13191;47.472;11.214;2022-10-17T02:41:43;8.50;99.90
25248;DHT22;13191;47.472;11.214;2022-10-17T02:44:09;8.50;99.90
25248;DHT22;13191;47.472;11.214;2022-10-17T02:46:36;8.50;99.90
25248;DHT22;13191;47.472;11.214;2022-10-17T02:51:32;8.30;99.90
25248;DHT22;13191;47.472;11.214;2022-10-17T02:54:05;8.30;99.90
25248;DHT22;13191;47.472;11.214;2022-10-17T02:56:35;8.40;99.90
25248;DHT22;13191;47.472;11.214;2022-10-17T02:59:02;8.40;99.90
25248;DHT22;13191;47.472;11.214;2022-10-17T03:01:29;8.50;99.90
25248;DHT22;13191;47.472;11.214;2022-10-17T03:04:11;8.40;99.90
25248;DHT22;13191;47.472;11.214;2022-10-17T03:06:37;8.30;99.90
25248;DHT22;13191;47.472;11.214;2022-10-17T03:09:03;8.30;99.90
25248;DHT22;13191;47.472;11.214;2022-10-17T03:11:28;8.30;99.90
25248;DHT22;13191;47.472;11.214;2022-10-17T03:13:54;8.30;99.90
25248;DHT22;13191;47.472;11.214;2022-10-17T03:16:19;8.30;99.90
25248;DHT22;13191;47.472;11.214;2022-10-17T03:18:45;8.40;99.90
25248;DHT22;13191;47.472;11.214;2022-10-17T03:21:10;8.40;99.90
25248;DHT22;13191;47.472;11.214;2022-10-17T03:23:36;8.50;99.90
25248;DHT22;13191;47.472;11.214;2022-10-17T03:26:02;8.50;99.90
25248;DHT22;13191;47.472;11.214;2022-10-17T03:28:28;8.40;99.90
25248;DHT22;13191;47.472;11.214;2022-10-17T03:30:53;8.30;99.90
25248;DHT22;13191;47.472;11.214;2022-10-17T03:33:19;8.30;99.90
25248;DHT22;13191;47.472;11.214;2022-10-17T03:35:44;8.20;99.90
25248;DHT22;13191;47.472;11.214;2022-10-17T03:38:10;8.20;99.90
25248;DHT22;13191;47.472;11.214;2022-10-17T03:40:35;8.10;99.90
25248;DHT22;13191;47.472;11.214;2022-10-17T03:43:01;8.10;99.90
25248;DHT22;13191;47.472;11.214;2022-10-17T03:45:26;8.20;99.90
25248;DHT22;13191;47.472;11.214;2022-10-17T03:47:51;8.30;99.90
25248;DHT22;13191;47.472;11.214;2022-10-17T03:50:17;8.30;99.90
25248;DHT22;13191;47.472;11.214;2022-10-17T03:52:45;8.30;99.90
25248;DHT22;13191;47.472;11.214;2022-10-17T03:55:10;8.30;99.90
25248;DHT22;13191;47.472;11.214;2022-10-17T03:57:36;8.10;99.90
25248;DHT22;13191;47.472;11.214;2022-10-17T04:00:02;8.10;99.90
25248;DHT22;13191;47.472;11.214;2022-10-17T04:02:27;8.00;99.90
25248;DHT22;13191;47.472;11.214;2022-10-17T04:04:53;8.00;99.90
25248;DHT22;13191;47.472;11.214;2022-10-17T04:07:19;8.00;99.90
25248;DHT22;13191;47.472;11.214;2022-10-17T04:09:44;8.00;99.90
25248;DHT22;13191;47.472;11.214;2022-10-17T04:12:10;8.00;99.90
25248;DHT22;13191;47.472;11.214;2022-10-17T04:14:35;8.00;99.90
25248;DHT22;13191;47.472;11.214;2022-10-17T04:17:01;8.10;99.90
25248;DHT22;13191;47.472;11.214;2022-10-17T04:19:26;8.10;99.90
25248;DHT22;13191;47.472;11.214;2022-10-17T04:21:52;8.00;99.90
25248;DHT22;13191;47.472;11.214;2022-10-17T04:24:17;8.00;99.90
25248;DHT22;13191;47.472;11.214;2022-10-17T04:26:43;7.90;99.90
25248;DHT22;13191;47.472;11.214;2022-10-17T04:29:08;7.90;99.90
25248;DHT22;13191;47.472;11.214;2022-10-17T04:31:34;7.90;99.90
25248;DHT22;13191;47.472;11.214;2022-10-17T04:34:00;7.90;99.90
25248;DHT22;13191;47.472;11.214;2022-10-17T04:36:25;8.00;99.90
25248;DHT22;13191;47.472;11.214;2022-10-17T04:38:51;8.00;99.90
25248;DHT22;13191;47.472;11.214;2022-10-17T04:41:16;8.00;99.90
25248;DHT22;13191;47.472;11.214;2022-10-17T04:43:42;8.00;99.90
25248;DHT22;13191;47.472;11.214;2022-10-17T04:46:09;8.10;99.90
25248;DHT22;13191;47.472;11.214;2022-10-17T04:48:35;8.10;99.90
25248;DHT22;13191;47.472;11.214;2022-10-17T04:51:02;8.10;99.90
25248;DHT22;13191;47.472;11.214;2022-10-17T04:53:32;8.10;99.90
25248;DHT22;13191;47.472;11.214;2022-10-17T04:55:57;8.10;99.90
25248;DHT22;13191;47.472;11.214;2022-10-17T04:58:23;8.10;99.90
25248;DHT22;13191;47.472;11.214;2022-10-17T05:00:49;8.00;99.90
25248;DHT22;13191;47.472;11.214;2022-10-17T05:03:14;8.00;99.90
25248;DHT22;13191;47.472;11.214;2022-10-17T05:05:40;7.80;99.90
25248;DHT22;13191;47.472;11.214;2022-10-17T05:08:07;7.80;99.90
25248;DHT22;13191;47.472;11.214;2022-10-17T05:10:37;7.90;99.90
25248;DHT22;13191;47.472;11.214;2022-10-17T05:13:03;7.90;99.90
25248;DHT22;13191;47.472;11.214;2022-10-17T05:15:28;7.90;99.90
25248;DHT22;13191;47.472;11.214;2022-10-17T05:17:54;7.80;99.90
25248;DHT22;13191;47.472;11.214;2022-10-17T05:20:20;7.80;99.90
25248;DHT22;13191;47.472;11.214;2022-10-17T05:22:46;7.90;99.90
25248;DHT22;13191;47.472;11.214;2022-10-17T05:25:11;7.80;99.90
25248;DHT22;13191;47.472;11.214;2022-10-17T05:27:37;7.80;99.90
25248;DHT22;13191;47.472;11.214;2022-10-17T05:30:02;7.80;99.90
25248;DHT22;13191;47.472;11.214;2022-10-17T05:32:28;7.80;99.90
25248;DHT22;13191;47.472;11.214;2022-10-17T05:34:53;7.70;99.90
25248;DHT22;13191;47.472;11.214;2022-10-17T05:37:19;7.80;99.90
25248;DHT22;13191;47.472;11.214;2022-10-17T05:39:44;7.80;99.90
25248;DHT22;13191;47.472;11.214;2022-10-17T05:42:10;7.80;99.90
25248;DHT22;13191;47.472;11.214;2022-10-17T05:44:35;7.70;99.90
25248;DHT22;13191;47.472;11.214;2022-10-17T05:47:01;7.70;99.90
25248;DHT22;13191;47.472;11.214;2022-10-17T05:49:26;7.70;99.90
25248;DHT22;13191;47.472;11.214;2022-10-17T05:51:52;7.70;99.90
25248;DHT22;13191;47.472;11.214;2022-10-17T05:54:17;7.70;99.90
25248;DHT22;13191;47.472;11.214;2022-10-17T05:56:42;7.70;99.90
25248;DHT22;13191;47.472;11.214;2022-10-17T05:59:08;7.70;99.90
25248;DHT22;13191;47.472;11.214;2022-10-17T06:01:33;7.60;99.90
25248;DHT22;13191;47.472;11.214;2022-10-17T06:03:59;7.60;99.90
25248;DHT22;13191;47.472;11.214;2022-10-17T06:06:24;7.60;99.90
25248;DHT22;13191;47.472;11.214;2022-10-17T06:08:50;7.70;99.90
25248;DHT22;13191;47.472;11.214;2022-10-17T06:11:15;7.70;99.90
25248;DHT22;13191;47.472;11.214;2022-10-17T06:13:41;7.70;99.90
25248;DHT22;13191;47.472;11.214;2022-10-17T06:16:06;7.70;99.90
25248;DHT22;13191;47.472;11.214;2022-10-17T06:18:32;7.80;99.90
25248;DHT22;13191;47.472;11.214;2022-10-17T06:21:05;7.80;99.90
25248;DHT22;13191;47.472;11.214;2022-10-17T06:23:31;7.80;99.90
25248;DHT22;13191;47.472;11.214;2022-10-17T06:25:57;7.80;99.90
25248;DHT22;13191;47.472;11.214;2022-10-17T06:28:23;7.90;99.90
25248;DHT22;13191;47.472;11.214;2022-10-17T06:30:48;7.80;99.90
25248;DHT22;13191;47.472;11.214;2022-10-17T06:33:13;7.90;99.90
25248;DHT22;13191;47.472;11.214;2022-10-17T06:35:39;7.90;99.90
25248;DHT22;13191;47.472;11.214;2022-10-17T06:38:04;7.90;99.90
25248;DHT22;13191;47.472;11.214;2022-10-17T06:40:30;8.00;99.90
25248;DHT22;13191;47.472;11.214;2022-10-17T06:42:55;8.00;99.90
25248;DHT22;13191;47.472;11.214;2022-10-17T06:45:21;8.00;99.90
25248;DHT22;13191;47.472;11.214;2022-10-17T06:47:47;8.10;99.90
25248;DHT22;13191;47.472;11.214;2022-10-17T06:50:13;8.10;99.90
25248;DHT22;13191;47.472;11.214;2022-10-17T06:52:38;8.10;99.90
25248;DHT22;13191;47.472;11.214;2022-10-17T06:55:04;8.10;99.90
25248;DHT22;13191;47.472;11.214;2022-10-17T06:57:30;8.10;99.90
25248;DHT22;13191;47.472;11.214;2022-10-17T06:59:55;8.20;99.90
25248;DHT22;13191;47.472;11.214;2022-10-17T07:02:22;8.30;99.90
25248;DHT22;13191;47.472;11.214;2022-10-17T07:04:48;8.40;99.90
25248;DHT22;13191;47.472;11.214;2022-10-17T07:07:14;8.50;99.90
25248;DHT22;13191;47.472;11.214;2022-10-17T07:09:40;8.60;99.90
25248;DHT22;13191;47.472;11.214;2022-10-17T07:12:05;8.60;99.90
25248;DHT22;13191;47.472;11.214;2022-10-17T07:14:33;8.70;99.90
25248;DHT22;13191;47.472;11.214;2022-10-17T07:16:58;8.80;99.90
25248;DHT22;13191;47.472;11.214;2022-10-17T07:19:24;8.90;99.90
25248;DHT22;13191;47.472;11.214;2022-10-17T07:21:51;9.00;99.90
25248;DHT22;13191;47.472;11.214;2022-10-17T07:24:17;9.10;99.90
25248;DHT22;13191;47.472;11.214;2022-10-17T07:26:43;9.10;99.90
25248;DHT22;13191;47.472;11.214;2022-10-17T07:29:09;9.30;99.90
25248;DHT22;13191;47.472;11.214;2022-10-17T07:31:34;9.40;99.90
25248;DHT22;13191;47.472;11.214;2022-10-17T07:34:00;9.40;99.90
25248;DHT22;13191;47.472;11.214;2022-10-17T07:36:25;9.50;99.90
25248;DHT22;13191;47.472;11.214;2022-10-17T07:38:51;9.50;99.90
25248;DHT22;13191;47.472;11.214;2022-10-17T07:41:16;9.60;99.90
25248;DHT22;13191;47.472;11.214;2022-10-17T07:46:09;9.80;99.90
25248;DHT22;13191;47.472;11.214;2022-10-17T07:48:36;9.90;99.90
25248;DHT22;13191;47.472;11.214;2022-10-17T07:51:02;10.00;99.90
25248;DHT22;13191;47.472;11.214;2022-10-17T07:53:28;10.10;99.90
25248;DHT22;13191;47.472;11.214;2022-10-17T07:55:53;10.40;99.90
25248;DHT22;13191;47.472;11.214;2022-10-17T07:58:19;10.50;99.90
25248;DHT22;13191;47.472;11.214;2022-10-17T08:00:44;10.60;99.90
25248;DHT22;13191;47.472;11.214;2022-10-17T08:03:12;10.70;99.90
25248;DHT22;13191;47.472;11.214;2022-10-17T08:05:38;10.80;99.90
25248;DHT22;13191;47.472;11.214;2022-10-17T08:08:03;11.00;99.90
25248;DHT22;13191;47.472;11.214;2022-10-17T08:10:29;11.10;99.90
25248;DHT22;13191;47.472;11.214;2022-10-17T08:12:54;11.20;99.90
25248;DHT22;13191;47.472;11.214;2022-10-17T08:15:21;11.30;99.90
25248;DHT22;13191;47.472;11.214;2022-10-17T08:17:46;11.50;99.90
25248;DHT22;13191;47.472;11.214;2022-10-17T08:20:12;11.60;99.90
25248;DHT22;13191;47.472;11.214;2022-10-17T08:22:37;11.70;99.90
25248;DHT22;13191;47.472;11.214;2022-10-17T08:25:03;11.80;99.90
25248;DHT22;13191;47.472;11.214;2022-10-17T08:27:29;11.90;99.90
25248;DHT22;13191;47.472;11.214;2022-10-17T08:29:54;12.10;99.90
25248;DHT22;13191;47.472;11.214;2022-10-17T08:32:20;12.30;99.90
25248;DHT22;13191;47.472;11.214;2022-10-17T08:34:46;12.50;99.90
25248;DHT22;13191;47.472;11.214;2022-10-17T08:37:12;12.50;99.90
25248;DHT22;13191;47.472;11.214;2022-10-17T08:39:38;12.60;99.90
25248;DHT22;13191;47.472;11.214;2022-10-17T08:45:10;12.90;99.90
25248;DHT22;13191;47.472;11.214;2022-10-17T08:47:40;13.00;99.90
25248;DHT22;13191;47.472;11.214;2022-10-17T08:50:10;13.10;99.90
25248;DHT22;13191;47.472;11.214;2022-10-17T08:52:43;13.30;99.90
25248;DHT22;13191;47.472;11.214;2022-10-17T08:55:13;13.40;99.90
25248;DHT22;13191;47.472;11.214;2022-10-17T08:57:39;13.60;99.90
25248;DHT22;13191;47.472;11.214;2022-10-17T09:00:06;13.70;99.90
25248;DHT22;13191;47.472;11.214;2022-10-17T09:02:35;13.70;99.90
25248;DHT22;13191;47.472;11.214;2022-10-17T09:07:56;14.10;99.90
25248;DHT22;13191;47.472;11.214;2022-10-17T09:18:30;14.70;99.90
25248;DHT22;13191;47.472;11.214;2022-10-17T09:21:13;14.80;99.90
25248;DHT22;13191;47.472;11.214;2022-10-17T09:23:48;14.90;99.90
25248;DHT22;13191;47.472;11.214;2022-10-17T09:26:15;15.00;99.90
25248;DHT22;13191;47.472;11.214;2022-10-17T09:28:41;15.10;99.90
25248;DHT22;13191;47.472;11.214;2022-10-17T09:31:20;15.20;99.90
25248;DHT22;13191;47.472;11.214;2022-10-17T09:33:46;15.40;99.90
25248;DHT22;13191;47.472;11.214;2022-10-17T09:36:14;15.50;99.90
25248;DHT22;13191;47.472;11.214;2022-10-17T09:38:46;15.70;99.90
25248;DHT22;13191;47.472;11.214;2022-10-17T09:41:14;15.80;99.90
25248;DHT22;13191;47.472;11.214;2022-10-17T09:43:40;16.00;99.90
25248;DHT22;13191;47.472;11.214;2022-10-17T09:46:19;16.20;99.90
25248;DHT22;13191;47.472;11.214;2022-10-17T09:48:54;16.40;99.90
25248;DHT22;13191;47.472;11.214;2022-10-17T09:51:21;16.50;99.90
25248;DHT22;13191;47.472;11.214;2022-10-17T09:53:49;16.70;99.90
25248;DHT22;13191;47.472;11.214;2022-10-17T09:56:16;16.90;99.90
25248;DHT22;13191;47.472;11.214;2022-10-17T09:58:43;17.00;99.90
25248;DHT22;13191;47.472;11.214;2022-10-17T10:01:22;17.10;99.90
25248;DHT22;13191;47.472;11.214;2022-10-17T10:03:49;17.10;99.90
25248;DHT22;13191;47.472;11.214;2022-10-17T10:06:32;17.30;99.90
25248;DHT22;13191;47.472;11.214;2022-10-17T10:08:57;17.40;99.90
25248;DHT22;13191;47.472;11.214;2022-10-17T10:11:24;17.60;99.90
25248;DHT22;13191;47.472;11.214;2022-10-17T10:13:50;17.80;99.90
25248;DHT22;13191;47.472;11.214;2022-10-17T10:16:21;17.80;99.90
25248;DHT22;13191;47.472;11.214;2022-10-17T10:18:48;17.90;99.90
25248;DHT22;13191;47.472;11.214;2022-10-17T10:21:16;18.10;99.90
25248;DHT22;13191;47.472;11.214;2022-10-17T10:23:42;18.20;99.90
25248;DHT22;13191;47.472;11.214;2022-10-17T10:26:24;18.20;99.90
25248;DHT22;13191;47.472;11.214;2022-10-17T10:29:17;18.40;99.90
25248;DHT22;13191;47.472;11.214;2022-10-17T10:31:44;18.50;99.90
25248;DHT22;13191;47.472;11.214;2022-10-17T10:34:23;18.60;99.90
25248;DHT22;13191;47.472;11.214;2022-10-17T10:40:02;18.90;99.90
25248;DHT22;13191;47.472;11.214;2022-10-17T10:42:19;19.10;99.90
25248;DHT22;13191;47.472;11.214;2022-10-17T10:44:46;19.10;99.90
25248;DHT22;13191;47.472;11.214;2022-10-17T10:47:20;19.30;99.90
25248;DHT22;13191;47.472;11.214;2022-10-17T10:49:46;19.50;99.90
25248;DHT22;13191;47.472;11.214;2022-10-17T10:52:17;19.60;99.90
25248;DHT22;13191;47.472;11.214;2022-10-17T10:54:57;19.60;99.90
25248;DHT22;13191;47.472;11.214;2022-10-17T10:57:24;19.70;99.90
25248;DHT22;13191;47.472;11.214;2022-10-17T11:02:52;20.00;99.90
25248;DHT22;13191;47.472;11.214;2022-10-17T11:08:10;20.20;99.90
25248;DHT22;13191;47.472;11.214;2022-10-17T11:10:54;20.20;99.90
25248;DHT22;13191;47.472;11.214;2022-10-17T11:13:24;20.30;99.90
25248;DHT22;13191;47.472;11.214;2022-10-17T11:26:20;21.00;99.90
25248;DHT22;13191;47.472;11.214;2022-10-17T11:28:54;21.10;99.90
25248;DHT22;13191;47.472;11.214;2022-10-17T11:31:21;21.20;99.90
25248;DHT22;13191;47.472;11.214;2022-10-17T11:33:53;21.30;99.90
25248;DHT22;13191;47.472;11.214;2022-10-17T11:36:21;21.30;99.90
25248;DHT22;13191;47.472;11.214;2022-10-17T11:38:51;21.40;99.70
25248;DHT22;13191;47.472;11.214;2022-10-17T11:41:23;21.50;99.50
25248;DHT22;13191;47.472;11.214;2022-10-17T11:43:56;21.60;98.30
25248;DHT22;13191;47.472;11.214;2022-10-17T11:46:23;21.60;99.20
25248;DHT22;13191;47.472;11.214;2022-10-17T11:51:14;21.80;96.80
25248;DHT22;13191;47.472;11.214;2022-10-17T11:53:45;21.80;96.40
25248;DHT22;13191;47.472;11.214;2022-10-17T11:56:11;21.90;97.80
25248;DHT22;13191;47.472;11.214;2022-10-17T11:58:40;22.00;98.30
25248;DHT22;13191;47.472;11.214;2022-10-17T12:01:26;22.10;97.40
25248;DHT22;13191;47.472;11.214;2022-10-17T12:04:00;22.10;99.50
25248;DHT22;13191;47.472;11.214;2022-10-17T12:11:50;22.20;99.90
25248;DHT22;13191;47.472;11.214;2022-10-17T12:16:59;22.30;99.90
25248;DHT22;13191;47.472;11.214;2022-10-17T12:19:26;22.40;99.40
25248;DHT22;13191;47.472;11.214;2022-10-17T12:22:03;22.50;98.80
25248;DHT22;13191;47.472;11.214;2022-10-17T12:26:55;22.60;97.80
25248;DHT22;13191;47.472;11.214;2022-10-17T12:29:25;22.60;95.90
25248;DHT22;13191;47.472;11.214;2022-10-17T12:31:51;22.60;96.30
25248;DHT22;13191;47.472;11.214;2022-10-17T12:34:17;22.60;95.90
25248;DHT22;13191;47.472;11.214;2022-10-17T12:36:45;22.70;97.30
25248;DHT22;13191;47.472;11.214;2022-10-17T12:46:46;22.80;95.50
25248;DHT22;13191;47.472;11.214;2022-10-17T12:54:27;22.90;95.10
25248;DHT22;13191;47.472;11.214;2022-10-17T12:56:53;23.00;94.40
25248;DHT22;13191;47.472;11.214;2022-10-17T12:59:25;23.00;94.80
25248;DHT22;13191;47.472;11.214;2022-10-17T13:01:52;23.10;94.60
25248;DHT22;13191;47.472;11.214;2022-10-17T13:04:19;23.10;94.00
25248;DHT22;13191;47.472;11.214;2022-10-17T13:06:49;23.20;93.70
25248;DHT22;13191;47.472;11.214;2022-10-17T13:09:19;23.30;93.70
25248;DHT22;13191;47.472;11.214;2022-10-17T13:11:47;23.50;94.30
25248;DHT22;13191;47.472;11.214;2022-10-17T13:14:13;23.60;93.50
25248;DHT22;13191;47.472;11.214;2022-10-17T13:16:40;23.70;92.50
25248;DHT22;13191;47.472;11.214;2022-10-17T13:21:57;24.10;91.70
25248;DHT22;13191;47.472;11.214;2022-10-17T13:24:29;24.10;91.50
25248;DHT22;13191;47.472;11.214;2022-10-17T13:26:55;24.10;92.60
25248;DHT22;13191;47.472;11.214;2022-10-17T13:29:20;24.20;92.30
25248;DHT22;13191;47.472;11.214;2022-10-17T13:31:52;24.30;92.20
25248;DHT22;13191;47.472;11.214;2022-10-17T13:34:20;24.40;92.80
25248;DHT22;13191;47.472;11.214;2022-10-17T13:36:46;24.50;92.50
25248;DHT22;13191;47.472;11.214;2022-10-17T13:39:13;24.60;92.40
25248;DHT22;13191;47.472;11.214;2022-10-17T13:41:40;24.70;91.90
25248;DHT22;13191;47.472;11.214;2022-10-17T13:44:24;24.80;92.30
25248;DHT22;13191;47.472;11.214;2022-10-17T13:46:51;24.90;92.20
25248;DHT22;13191;47.472;11.214;2022-10-17T13:51:45;25.10;92.60
25248;DHT22;13191;47.472;11.214;2022-10-17T13:56:54;25.30;92.40
25248;DHT22;13191;47.472;11.214;2022-10-17T13:59:21;25.30;91.10
25248;DHT22;13191;47.472;11.214;2022-10-17T14:01:47;25.40;91.70
25248;DHT22;13191;47.472;11.214;2022-10-17T14:04:14;25.40;92.30
25248;DHT22;13191;47.472;11.214;2022-10-17T14:06:44;25.60;93.70
25248;DHT22;13191;47.472;11.214;2022-10-17T14:09:17;25.80;93.90
25248;DHT22;13191;47.472;11.214;2022-10-17T14:11:54;25.90;93.30
25248;DHT22;13191;47.472;11.214;2022-10-17T14:14:23;25.90;92.70
25248;DHT22;13191;47.472;11.214;2022-10-17T14:16:50;25.80;92.40
25248;DHT22;13191;47.472;11.214;2022-10-17T14:21:53;25.70;92.60
25248;DHT22;13191;47.472;11.214;2022-10-17T14:26:47;26.40;92.90
25248;DHT22;13191;47.472;11.214;2022-10-17T14:29:19;26.70;93.20
25248;DHT22;13191;47.472;11.214;2022-10-17T14:31:45;27.00;93.90
25248;DHT22;13191;47.472;11.214;2022-10-17T14:34:15;27.30;93.50
25248;DHT22;13191;47.472;11.214;2022-10-17T14:36:44;27.40;93.10
25248;DHT22;13191;47.472;11.214;2022-10-17T14:39:20;27.60;92.80
25248;DHT22;13191;47.472;11.214;2022-10-17T14:41:46;27.60;92.90
25248;DHT22;13191;47.472;11.214;2022-10-17T14:44:17;27.80;92.70
25248;DHT22;13191;47.472;11.214;2022-10-17T14:46:44;27.90;92.40
25248;DHT22;13191;47.472;11.214;2022-10-17T14:49:24;28.10;92.40
25248;DHT22;13191;47.472;11.214;2022-10-17T14:54:34;28.10;90.40
25248;DHT22;13191;47.472;11.214;2022-10-17T14:57:00;28.20;89.90
25248;DHT22;13191;47.472;11.214;2022-10-17T14:59:32;28.20;90.50
25248;DHT22;13191;47.472;11.214;2022-10-17T15:01:58;28.30;91.20
25248;DHT22;13191;47.472;11.214;2022-10-17T15:04:23;28.30;92.50
25248;DHT22;13191;47.472;11.214;2022-10-17T15:06:52;28.30;93.50
25248;DHT22;13191;47.472;11.214;2022-10-17T15:09:18;28.20;94.10
25248;DHT22;13191;47.472;11.214;2022-10-17T15:11:43;28.10;95.00
25248;DHT22;13191;47.472;11.214;2022-10-17T15:14:09;28.00;95.40
25248;DHT22;13191;47.472;11.214;2022-10-17T15:16:34;27.90;95.50
25248;DHT22;13191;47.472;11.214;2022-10-17T15:19:01;27.80;96.00
25248;DHT22;13191;47.472;11.214;2022-10-17T15:21:27;27.70;96.00
25248;DHT22;13191;47.472;11.214;2022-10-17T15:23:53;27.60;95.80
25248;DHT22;13191;47.472;11.214;2022-10-17T15:26:22;27.50;95.70
25248;DHT22;13191;47.472;11.214;2022-10-17T15:28:48;27.30;95.70
25248;DHT22;13191;47.472;11.214;2022-10-17T15:31:16;27.20;96.40
25248;DHT22;13191;47.472;11.214;2022-10-17T15:33:42;27.00;96.20
25248;DHT22;13191;47.472;11.214;2022-10-17T15:38:42;26.60;96.40
25248;DHT22;13191;47.472;11.214;2022-10-17T15:41:09;26.10;96.50
25248;DHT22;13191;47.472;11.214;2022-10-17T15:43:35;25.50;97.00
25248;DHT22;13191;47.472;11.214;2022-10-17T15:46:00;25.20;97.20
25248;DHT22;13191;47.472;11.214;2022-10-17T15:48:28;24.80;97.60
25248;DHT22;13191;47.472;11.214;2022-10-17T15:50:54;23.80;98.10
25248;DHT22;13191;47.472;11.214;2022-10-17T15:53:19;23.20;99.20
25248;DHT22;13191;47.472;11.214;2022-10-17T15:55:45;23.10;99.80
25248;DHT22;13191;47.472;11.214;2022-10-17T15:58:14;23.00;99.90
25248;DHT22;13191;47.472;11.214;2022-10-17T16:00:40;22.80;99.90
25248;DHT22;13191;47.472;11.214;2022-10-17T16:03:06;22.40;99.90
25248;DHT22;13191;47.472;11.214;2022-10-17T16:05:31;22.10;99.90
25248;DHT22;13191;47.472;11.214;2022-10-17T16:07:56;21.80;99.90
25248;DHT22;13191;47.472;11.214;2022-10-17T16:10:22;21.70;99.90
25248;DHT22;13191;47.472;11.214;2022-10-17T16:12:49;21.50;99.90
25248;DHT22;13191;47.472;11.214;2022-10-17T16:15:19;21.40;99.90
25248;DHT22;13191;47.472;11.214;2022-10-17T16:17:47;21.30;99.90
25248;DHT22;13191;47.472;11.214;2022-10-17T16:20:12;21.00;99.90
25248;DHT22;13191;47.472;11.214;2022-10-17T16:22:38;20.80;99.90
25248;DHT22;13191;47.472;11.214;2022-10-17T16:25:07;20.60;99.90
25248;DHT22;13191;47.472;11.214;2022-10-17T16:27:36;20.40;99.90
25248;DHT22;13191;47.472;11.214;2022-10-17T16:30:05;20.30;99.90
25248;DHT22;13191;47.472;11.214;2022-10-17T16:32:31;19.90;99.90
25248;DHT22;13191;47.472;11.214;2022-10-17T16:34:57;19.70;99.90
25248;DHT22;13191;47.472;11.214;2022-10-17T16:37:24;19.60;99.90
25248;DHT22;13191;47.472;11.214;2022-10-17T16:39:50;19.00;99.90
25248;DHT22;13191;47.472;11.214;2022-10-17T16:42:18;18.80;99.90
25248;DHT22;13191;47.472;11.214;2022-10-17T16:44:43;18.80;99.90
25248;DHT22;13191;47.472;11.214;2022-10-17T16:47:09;18.80;99.90
25248;DHT22;13191;47.472;11.214;2022-10-17T16:49:35;18.60;99.90
25248;DHT22;13191;47.472;11.214;2022-10-17T16:52:00;17.80;99.90
25248;DHT22;13191;47.472;11.214;2022-10-17T16:54:26;17.50;99.90
25248;DHT22;13191;47.472;11.214;2022-10-17T16:56:52;17.40;99.90
25248;DHT22;13191;47.472;11.214;2022-10-17T16:59:17;17.50;99.90
25248;DHT22;13191;47.472;11.214;2022-10-17T17:01:43;17.50;99.90
25248;DHT22;13191;47.472;11.214;2022-10-17T17:04:08;17.30;99.90
25248;DHT22;13191;47.472;11.214;2022-10-17T17:06:35;17.30;99.90
25248;DHT22;13191;47.472;11.214;2022-10-17T17:09:00;17.10;99.90